Amory, Mississippi
Current Conditions -  °F | °C
As of 6:35 PM on Saturday 25 Oct 2014 (Local Time) from KM40 Reporting Station
Clear Clear  
Wind Chill: 72°   Ceiling: Unl
Heat Index: 72°   Visibility: 9mi
Dew Point: 54°   Wind: 0mph
Humidity: 53%   Direction: NA
Pressure: 30.05"   Gusts: NA
Location:  33.99°N, 88.49°W
Report Text: KM40 252335Z AUTO 00000KT 9SM CLR 22/12 A3005 RMK AO2
Loading
Personal Weather Stations






























Interactive Weather Map
Tropical Storm Tracking
New forecast layout! Learn more

10-Day Weather Forecast

Advertisements
Track Severe Weather on mobile